sensor_id;sensor_type;location;lat;lon;timestamp;P1;durP1;ratioP1;P2;durP2;ratioP2
10511;SDS011;5304;48.604;2.096;2022-11-06T00:01:32;4.40;;;2.80;;
10511;SDS011;5304;48.604;2.096;2022-11-06T00:04:16;9.80;;;3.20;;
10511;SDS011;5304;48.604;2.096;2022-11-06T00:07:01;6.73;;;3.07;;
10511;SDS011;5304;48.604;2.096;2022-11-06T00:09:45;10.30;;;3.47;;
10511;SDS011;5304;48.604;2.096;2022-11-06T00:12:29;5.07;;;3.07;;
10511;SDS011;5304;48.604;2.096;2022-11-06T00:15:14;6.33;;;3.17;;
10511;SDS011;5304;48.604;2.096;2022-11-06T00:17:58;7.13;;;3.40;;
10511;SDS011;5304;48.604;2.096;2022-11-06T00:20:43;5.40;;;3.10;;
10511;SDS011;5304;48.604;2.096;2022-11-06T00:23:27;8.03;;;3.10;;
10511;SDS011;5304;48.604;2.096;2022-11-06T00:26:15;7.50;;;3.07;;
10511;SDS011;5304;48.604;2.096;2022-11-06T00:29:02;5.90;;;2.60;;
10511;SDS011;5304;48.604;2.096;2022-11-06T00:31:49;6.53;;;3.33;;
10511;SDS011;5304;48.604;2.096;2022-11-06T00:34:34;8.60;;;2.87;;
10511;SDS011;5304;48.604;2.096;2022-11-06T00:37:18;6.50;;;2.87;;
10511;SDS011;5304;48.604;2.096;2022-11-06T00:40:03;6.17;;;3.10;;
10511;SDS011;5304;48.604;2.096;2022-11-06T00:42:51;3.20;;;2.83;;
10511;SDS011;5304;48.604;2.096;2022-11-06T00:45:36;7.43;;;2.97;;
10511;SDS011;5304;48.604;2.096;2022-11-06T00:48:21;10.90;;;3.47;;
10511;SDS011;5304;48.604;2.096;2022-11-06T00:53:55;4.30;;;2.90;;
10511;SDS011;5304;48.604;2.096;2022-11-06T00:56:41;6.30;;;2.77;;
10511;SDS011;5304;48.604;2.096;2022-11-06T00:59:25;8.13;;;2.90;;
10511;SDS011;5304;48.604;2.096;2022-11-06T01:02:09;5.10;;;2.97;;
10511;SDS011;5304;48.604;2.096;2022-11-06T01:04:54;8.87;;;2.60;;
10511;SDS011;5304;48.604;2.096;2022-11-06T01:07:38;7.87;;;3.33;;
10511;SDS011;5304;48.604;2.096;2022-11-06T01:10:23;10.97;;;2.73;;
10511;SDS011;5304;48.604;2.096;2022-11-06T01:13:07;7.73;;;3.07;;
10511;SDS011;5304;48.604;2.096;2022-11-06T01:15:52;4.40;;;2.37;;
10511;SDS011;5304;48.604;2.096;2022-11-06T01:18:36;6.53;;;3.00;;
10511;SDS011;5304;48.604;2.096;2022-11-06T01:21:25;6.57;;;3.23;;
10511;SDS011;5304;48.604;2.096;2022-11-06T01:24:14;7.73;;;3.17;;
10511;SDS011;5304;48.604;2.096;2022-11-06T01:27:01;9.33;;;3.30;;
10511;SDS011;5304;48.604;2.096;2022-11-06T01:29:45;7.13;;;2.73;;
10511;SDS011;5304;48.604;2.096;2022-11-06T01:32:30;5.60;;;2.37;;
10511;SDS011;5304;48.604;2.096;2022-11-06T01:35:14;10.30;;;3.20;;
10511;SDS011;5304;48.604;2.096;2022-11-06T01:37:58;4.83;;;2.83;;
10511;SDS011;5304;48.604;2.096;2022-11-06T01:40:44;6.70;;;3.17;;
10511;SDS011;5304;48.604;2.096;2022-11-06T01:43:50;9.73;;;3.27;;
10511;SDS011;5304;48.604;2.096;2022-11-06T01:46:39;6.40;;;3.60;;
10511;SDS011;5304;48.604;2.096;2022-11-06T01:49:24;3.63;;;2.83;;
10511;SDS011;5304;48.604;2.096;2022-11-06T01:52:10;6.73;;;3.10;;
10511;SDS011;5304;48.604;2.096;2022-11-06T01:55:06;6.73;;;2.93;;
10511;SDS011;5304;48.604;2.096;2022-11-06T01:57:54;8.60;;;3.23;;
10511;SDS011;5304;48.604;2.096;2022-11-06T02:00:40;8.17;;;2.80;;
10511;SDS011;5304;48.604;2.096;2022-11-06T02:03:26;5.67;;;2.57;;
10511;SDS011;5304;48.604;2.096;2022-11-06T02:06:10;11.70;;;3.07;;
10511;SDS011;5304;48.604;2.096;2022-11-06T02:08:55;7.43;;;2.40;;
10511;SDS011;5304;48.604;2.096;2022-11-06T02:11:41;9.63;;;2.93;;
10511;SDS011;5304;48.604;2.096;2022-11-06T02:14:35;5.90;;;2.87;;
10511;SDS011;5304;48.604;2.096;2022-11-06T02:17:30;5.43;;;2.47;;
10511;SDS011;5304;48.604;2.096;2022-11-06T02:20:41;5.50;;;2.57;;
10511;SDS011;5304;48.604;2.096;2022-11-06T02:32:46;8.33;;;3.20;;
10511;SDS011;5304;48.604;2.096;2022-11-06T02:35:44;8.93;;;2.50;;
10511;SDS011;5304;48.604;2.096;2022-11-06T02:38:35;8.67;;;2.97;;
10511;SDS011;5304;48.604;2.096;2022-11-06T02:41:23;5.90;;;3.27;;
10511;SDS011;5304;48.604;2.096;2022-11-06T02:44:12;9.43;;;3.37;;
10511;SDS011;5304;48.604;2.096;2022-11-06T02:47:02;6.90;;;2.60;;
10511;SDS011;5304;48.604;2.096;2022-11-06T02:49:52;6.93;;;3.30;;
10511;SDS011;5304;48.604;2.096;2022-11-06T02:52:41;5.87;;;2.80;;
10511;SDS011;5304;48.604;2.096;2022-11-06T02:55:40;8.87;;;3.50;;
10511;SDS011;5304;48.604;2.096;2022-11-06T03:07:30;10.03;;;3.10;;
10511;SDS011;5304;48.604;2.096;2022-11-06T03:10:22;7.17;;;2.70;;
10511;SDS011;5304;48.604;2.096;2022-11-06T03:13:14;7.13;;;3.27;;
10511;SDS011;5304;48.604;2.096;2022-11-06T03:19:25;4.50;;;2.80;;
10511;SDS011;5304;48.604;2.096;2022-11-06T03:22:39;4.97;;;2.80;;
10511;SDS011;5304;48.604;2.096;2022-11-06T03:25:30;7.83;;;3.23;;
10511;SDS011;5304;48.604;2.096;2022-11-06T03:28:28;7.40;;;3.27;;
10511;SDS011;5304;48.604;2.096;2022-11-06T03:31:38;5.13;;;2.77;;
10511;SDS011;5304;48.604;2.096;2022-11-06T03:34:30;10.17;;;3.50;;
10511;SDS011;5304;48.604;2.096;2022-11-06T03:37:24;8.00;;;3.00;;
10511;SDS011;5304;48.604;2.096;2022-11-06T03:40:16;5.77;;;3.50;;
10511;SDS011;5304;48.604;2.096;2022-11-06T03:43:05;7.80;;;2.63;;
10511;SDS011;5304;48.604;2.096;2022-11-06T03:45:53;6.43;;;2.53;;
10511;SDS011;5304;48.604;2.096;2022-11-06T03:48:41;5.73;;;3.03;;
10511;SDS011;5304;48.604;2.096;2022-11-06T03:51:32;5.47;;;2.93;;
10511;SDS011;5304;48.604;2.096;2022-11-06T03:54:30;6.40;;;3.00;;
10511;SDS011;5304;48.604;2.096;2022-11-06T03:57:22;5.73;;;2.80;;
10511;SDS011;5304;48.604;2.096;2022-11-06T04:00:12;8.10;;;3.07;;
10511;SDS011;5304;48.604;2.096;2022-11-06T04:02:58;7.43;;;3.00;;
10511;SDS011;5304;48.604;2.096;2022-11-06T04:05:57;5.63;;;2.63;;
10511;SDS011;5304;48.604;2.096;2022-11-06T04:08:50;6.57;;;2.80;;
10511;SDS011;5304;48.604;2.096;2022-11-06T04:11:56;8.93;;;3.00;;
10511;SDS011;5304;48.604;2.096;2022-11-06T04:15:03;5.27;;;3.17;;
10511;SDS011;5304;48.604;2.096;2022-11-06T04:17:49;3.57;;;2.70;;
10511;SDS011;5304;48.604;2.096;2022-11-06T04:20:36;7.40;;;2.73;;
10511;SDS011;5304;48.604;2.096;2022-11-06T04:30:13;6.47;;;3.30;;
10511;SDS011;5304;48.604;2.096;2022-11-06T04:33:10;6.20;;;2.70;;
10511;SDS011;5304;48.604;2.096;2022-11-06T04:39:03;5.13;;;2.60;;
10511;SDS011;5304;48.604;2.096;2022-11-06T04:44:57;8.07;;;2.80;;
10511;SDS011;5304;48.604;2.096;2022-11-06T04:47:47;5.73;;;2.77;;
10511;SDS011;5304;48.604;2.096;2022-11-06T04:50:44;5.23;;;2.40;;
10511;SDS011;5304;48.604;2.096;2022-11-06T04:53:32;4.10;;;2.20;;
10511;SDS011;5304;48.604;2.096;2022-11-06T04:56:36;6.37;;;2.60;;
10511;SDS011;5304;48.604;2.096;2022-11-06T04:59:20;8.33;;;2.70;;
10511;SDS011;5304;48.604;2.096;2022-11-06T05:02:05;4.73;;;2.13;;
10511;SDS011;5304;48.604;2.096;2022-11-06T05:04:49;6.73;;;2.23;;
10511;SDS011;5304;48.604;2.096;2022-11-06T05:07:34;6.80;;;2.20;;
10511;SDS011;5304;48.604;2.096;2022-11-06T05:10:18;4.90;;;2.67;;
10511;SDS011;5304;48.604;2.096;2022-11-06T05:13:03;7.43;;;2.80;;
10511;SDS011;5304;48.604;2.096;2022-11-06T05:15:47;7.00;;;3.10;;
10511;SDS011;5304;48.604;2.096;2022-11-06T05:18:32;3.47;;;2.20;;
10511;SDS011;5304;48.604;2.096;2022-11-06T05:21:17;4.83;;;2.43;;
10511;SDS011;5304;48.604;2.096;2022-11-06T05:24:20;8.00;;;2.43;;
10511;SDS011;5304;48.604;2.096;2022-11-06T05:27:04;6.77;;;2.77;;
10511;SDS011;5304;48.604;2.096;2022-11-06T05:29:49;5.97;;;2.97;;
10511;SDS011;5304;48.604;2.096;2022-11-06T05:32:33;4.00;;;2.40;;
10511;SDS011;5304;48.604;2.096;2022-11-06T05:35:17;3.60;;;2.50;;
10511;SDS011;5304;48.604;2.096;2022-11-06T05:38:03;6.80;;;2.40;;
10511;SDS011;5304;48.604;2.096;2022-11-06T05:40:47;4.47;;;2.40;;
10511;SDS011;5304;48.604;2.096;2022-11-06T05:43:31;3.97;;;2.43;;
10511;SDS011;5304;48.604;2.096;2022-11-06T05:46:16;8.33;;;2.70;;
10511;SDS011;5304;48.604;2.096;2022-11-06T05:49:00;8.27;;;2.93;;
10511;SDS011;5304;48.604;2.096;2022-11-06T05:51:45;9.33;;;2.60;;
10511;SDS011;5304;48.604;2.096;2022-11-06T05:54:30;4.23;;;2.40;;
10511;SDS011;5304;48.604;2.096;2022-11-06T05:57:14;4.10;;;2.40;;
10511;SDS011;5304;48.604;2.096;2022-11-06T05:59:59;7.13;;;2.50;;
10511;SDS011;5304;48.604;2.096;2022-11-06T06:02:43;7.37;;;2.60;;
10511;SDS011;5304;48.604;2.096;2022-11-06T06:05:27;3.90;;;2.67;;
10511;SDS011;5304;48.604;2.096;2022-11-06T06:08:12;4.60;;;2.83;;
10511;SDS011;5304;48.604;2.096;2022-11-06T06:10:57;6.57;;;2.73;;
10511;SDS011;5304;48.604;2.096;2022-11-06T06:13:41;5.60;;;2.50;;
10511;SDS011;5304;48.604;2.096;2022-11-06T06:16:25;7.23;;;3.53;;
10511;SDS011;5304;48.604;2.096;2022-11-06T06:19:10;4.50;;;2.73;;
10511;SDS011;5304;48.604;2.096;2022-11-06T06:21:54;5.90;;;2.80;;
10511;SDS011;5304;48.604;2.096;2022-11-06T06:24:39;4.03;;;2.33;;
10511;SDS011;5304;48.604;2.096;2022-11-06T06:27:23;10.13;;;3.17;;
10511;SDS011;5304;48.604;2.096;2022-11-06T06:30:10;5.37;;;2.03;;
10511;SDS011;5304;48.604;2.096;2022-11-06T06:32:55;7.10;;;2.40;;
10511;SDS011;5304;48.604;2.096;2022-11-06T06:35:39;7.83;;;2.30;;
10511;SDS011;5304;48.604;2.096;2022-11-06T06:38:24;6.43;;;2.90;;
10511;SDS011;5304;48.604;2.096;2022-11-06T06:41:09;5.63;;;2.33;;
10511;SDS011;5304;48.604;2.096;2022-11-06T06:43:53;6.13;;;2.50;;
10511;SDS011;5304;48.604;2.096;2022-11-06T06:46:38;6.03;;;2.20;;
10511;SDS011;5304;48.604;2.096;2022-11-06T06:49:23;7.37;;;2.57;;
10511;SDS011;5304;48.604;2.096;2022-11-06T06:52:07;5.73;;;2.50;;
10511;SDS011;5304;48.604;2.096;2022-11-06T06:54:52;5.60;;;2.53;;
10511;SDS011;5304;48.604;2.096;2022-11-06T06:57:36;7.20;;;2.50;;
10511;SDS011;5304;48.604;2.096;2022-11-06T07:00:20;4.73;;;2.40;;
10511;SDS011;5304;48.604;2.096;2022-11-06T07:03:05;5.60;;;2.37;;
10511;SDS011;5304;48.604;2.096;2022-11-06T07:05:49;8.63;;;2.97;;
10511;SDS011;5304;48.604;2.096;2022-11-06T07:08:33;5.73;;;2.50;;
10511;SDS011;5304;48.604;2.096;2022-11-06T07:11:18;6.60;;;2.57;;
10511;SDS011;5304;48.604;2.096;2022-11-06T07:14:03;4.40;;;2.23;;
10511;SDS011;5304;48.604;2.096;2022-11-06T07:16:47;9.53;;;2.80;;
10511;SDS011;5304;48.604;2.096;2022-11-06T07:19:32;3.40;;;2.20;;
10511;SDS011;5304;48.604;2.096;2022-11-06T07:22:16;4.43;;;2.53;;
10511;SDS011;5304;48.604;2.096;2022-11-06T07:25:00;9.90;;;2.60;;
10511;SDS011;5304;48.604;2.096;2022-11-06T07:27:45;5.30;;;2.47;;
10511;SDS011;5304;48.604;2.096;2022-11-06T07:30:29;5.40;;;2.67;;
10511;SDS011;5304;48.604;2.096;2022-11-06T07:33:14;6.03;;;2.23;;
10511;SDS011;5304;48.604;2.096;2022-11-06T07:36:03;5.80;;;2.40;;
10511;SDS011;5304;48.604;2.096;2022-11-06T07:38:56;5.37;;;2.33;;
10511;SDS011;5304;48.604;2.096;2022-11-06T07:41:40;6.40;;;3.00;;
10511;SDS011;5304;48.604;2.096;2022-11-06T07:44:25;4.50;;;2.60;;
10511;SDS011;5304;48.604;2.096;2022-11-06T07:47:09;5.07;;;1.73;;
10511;SDS011;5304;48.604;2.096;2022-11-06T07:49:54;4.57;;;2.50;;
10511;SDS011;5304;48.604;2.096;2022-11-06T07:52:39;6.53;;;2.53;;
10511;SDS011;5304;48.604;2.096;2022-11-06T07:55:23;7.00;;;2.13;;
10511;SDS011;5304;48.604;2.096;2022-11-06T07:58:08;6.30;;;2.20;;
10511;SDS011;5304;48.604;2.096;2022-11-06T08:00:53;8.10;;;2.80;;
10511;SDS011;5304;48.604;2.096;2022-11-06T08:03:40;6.30;;;2.80;;
10511;SDS011;5304;48.604;2.096;2022-11-06T08:06:24;4.73;;;2.43;;
10511;SDS011;5304;48.604;2.096;2022-11-06T08:09:09;4.67;;;2.87;;
10511;SDS011;5304;48.604;2.096;2022-11-06T08:11:53;6.93;;;2.87;;
10511;SDS011;5304;48.604;2.096;2022-11-06T08:14:37;4.60;;;2.37;;
10511;SDS011;5304;48.604;2.096;2022-11-06T08:17:22;6.43;;;2.50;;
10511;SDS011;5304;48.604;2.096;2022-11-06T08:20:07;5.07;;;2.23;;
10511;SDS011;5304;48.604;2.096;2022-11-06T08:22:56;3.80;;;2.57;;
10511;SDS011;5304;48.604;2.096;2022-11-06T08:25:42;4.43;;;2.47;;
10511;SDS011;5304;48.604;2.096;2022-11-06T08:28:27;7.13;;;2.43;;
10511;SDS011;5304;48.604;2.096;2022-11-06T08:31:11;5.30;;;2.60;;
10511;SDS011;5304;48.604;2.096;2022-11-06T08:33:56;7.57;;;2.63;;
10511;SDS011;5304;48.604;2.096;2022-11-06T08:36:42;6.03;;;2.40;;
10511;SDS011;5304;48.604;2.096;2022-11-06T08:39:28;7.37;;;2.77;;
10511;SDS011;5304;48.604;2.096;2022-11-06T08:42:13;7.83;;;2.47;;
10511;SDS011;5304;48.604;2.096;2022-11-06T08:44:57;4.57;;;2.30;;
10511;SDS011;5304;48.604;2.096;2022-11-06T08:47:41;4.40;;;2.73;;
10511;SDS011;5304;48.604;2.096;2022-11-06T08:50:26;5.07;;;2.23;;
10511;SDS011;5304;48.604;2.096;2022-11-06T08:53:10;7.80;;;2.80;;
10511;SDS011;5304;48.604;2.096;2022-11-06T08:55:55;5.73;;;2.63;;
10511;SDS011;5304;48.604;2.096;2022-11-06T08:58:40;6.77;;;2.80;;
10511;SDS011;5304;48.604;2.096;2022-11-06T09:01:24;11.97;;;3.03;;
10511;SDS011;5304;48.604;2.096;2022-11-06T09:04:09;8.00;;;3.43;;
10511;SDS011;5304;48.604;2.096;2022-11-06T09:06:55;8.03;;;3.00;;
10511;SDS011;5304;48.604;2.096;2022-11-06T09:09:40;5.03;;;2.53;;
10511;SDS011;5304;48.604;2.096;2022-11-06T09:12:25;5.50;;;2.30;;
10511;SDS011;5304;48.604;2.096;2022-11-06T09:15:09;7.17;;;2.83;;
10511;SDS011;5304;48.604;2.096;2022-11-06T09:17:54;6.90;;;2.57;;
10511;SDS011;5304;48.604;2.096;2022-11-06T09:20:39;5.53;;;3.07;;
10511;SDS011;5304;48.604;2.096;2022-11-06T09:23:23;8.63;;;2.77;;
10511;SDS011;5304;48.604;2.096;2022-11-06T09:26:08;8.87;;;2.87;;
10511;SDS011;5304;48.604;2.096;2022-11-06T09:28:53;5.43;;;2.30;;
10511;SDS011;5304;48.604;2.096;2022-11-06T09:31:37;9.23;;;2.50;;
10511;SDS011;5304;48.604;2.096;2022-11-06T09:34:21;8.43;;;2.80;;
10511;SDS011;5304;48.604;2.096;2022-11-06T09:37:06;6.23;;;2.40;;
10511;SDS011;5304;48.604;2.096;2022-11-06T09:39:51;8.50;;;3.20;;
10511;SDS011;5304;48.604;2.096;2022-11-06T09:45:47;10.67;;;4.93;;
10511;SDS011;5304;48.604;2.096;2022-11-06T09:48:35;6.13;;;5.07;;
10511;SDS011;5304;48.604;2.096;2022-11-06T09:54:24;14.87;;;3.87;;
10511;SDS011;5304;48.604;2.096;2022-11-06T10:00:22;6.27;;;2.60;;
10511;SDS011;5304;48.604;2.096;2022-11-06T10:03:28;6.60;;;2.23;;
10511;SDS011;5304;48.604;2.096;2022-11-06T10:06:23;7.20;;;2.77;;
10511;SDS011;5304;48.604;2.096;2022-11-06T10:09:09;5.27;;;2.53;;
10511;SDS011;5304;48.604;2.096;2022-11-06T10:12:01;9.90;;;4.40;;
10511;SDS011;5304;48.604;2.096;2022-11-06T10:14:52;12.67;;;5.50;;
10511;SDS011;5304;48.604;2.096;2022-11-06T10:20:47;7.50;;;3.33;;
10511;SDS011;5304;48.604;2.096;2022-11-06T10:23:49;5.53;;;2.93;;
10511;SDS011;5304;48.604;2.096;2022-11-06T10:26:39;15.90;;;9.83;;
10511;SDS011;5304;48.604;2.096;2022-11-06T10:36:04;7.17;;;4.53;;
10511;SDS011;5304;48.604;2.096;2022-11-06T10:38:54;7.13;;;3.80;;
10511;SDS011;5304;48.604;2.096;2022-11-06T10:41:41;10.63;;;6.40;;
10511;SDS011;5304;48.604;2.096;2022-11-06T10:47:21;6.50;;;3.13;;
10511;SDS011;5304;48.604;2.096;2022-11-06T10:50:10;7.30;;;4.10;;
10511;SDS011;5304;48.604;2.096;2022-11-06T10:52:59;9.63;;;4.47;;
10511;SDS011;5304;48.604;2.096;2022-11-06T10:56:16;13.33;;;7.83;;
10511;SDS011;5304;48.604;2.096;2022-11-06T10:59:12;8.00;;;6.07;;
10511;SDS011;5304;48.604;2.096;2022-11-06T11:01:58;7.53;;;4.10;;
10511;SDS011;5304;48.604;2.096;2022-11-06T11:04:44;6.60;;;5.27;;
10511;SDS011;5304;48.604;2.096;2022-11-06T11:07:29;8.27;;;3.37;;
10511;SDS011;5304;48.604;2.096;2022-11-06T11:13:10;10.20;;;5.07;;
10511;SDS011;5304;48.604;2.096;2022-11-06T11:16:03;8.90;;;4.50;;
10511;SDS011;5304;48.604;2.096;2022-11-06T11:18:55;14.27;;;4.90;;
10511;SDS011;5304;48.604;2.096;2022-11-06T11:22:20;7.27;;;4.43;;
10511;SDS011;5304;48.604;2.096;2022-11-06T11:25:07;8.47;;;4.40;;
10511;SDS011;5304;48.604;2.096;2022-11-06T11:28:10;8.13;;;4.27;;
10511;SDS011;5304;48.604;2.096;2022-11-06T11:31:19;7.20;;;4.80;;
10511;SDS011;5304;48.604;2.096;2022-11-06T11:34:17;9.10;;;3.80;;
10511;SDS011;5304;48.604;2.096;2022-11-06T11:37:22;8.37;;;3.77;;
10511;SDS011;5304;48.604;2.096;2022-11-06T11:40:19;7.90;;;3.17;;
10511;SDS011;5304;48.604;2.096;2022-11-06T11:43:28;9.93;;;4.43;;
10511;SDS011;5304;48.604;2.096;2022-11-06T11:46:15;6.17;;;3.60;;
10511;SDS011;5304;48.604;2.096;2022-11-06T11:49:01;7.47;;;3.60;;
10511;SDS011;5304;48.604;2.096;2022-11-06T11:51:49;8.27;;;4.27;;
10511;SDS011;5304;48.604;2.096;2022-11-06T11:54:34;7.77;;;3.93;;
10511;SDS011;5304;48.604;2.096;2022-11-06T11:57:20;12.43;;;4.37;;
10511;SDS011;5304;48.604;2.096;2022-11-06T12:00:12;6.37;;;3.43;;
10511;SDS011;5304;48.604;2.096;2022-11-06T12:03:05;6.20;;;3.90;;
10511;SDS011;5304;48.604;2.096;2022-11-06T12:06:02;8.77;;;4.43;;
10511;SDS011;5304;48.604;2.096;2022-11-06T12:08:50;7.00;;;3.50;;
10511;SDS011;5304;48.604;2.096;2022-11-06T12:11:38;10.60;;;3.70;;
10511;SDS011;5304;48.604;2.096;2022-11-06T12:14:30;10.30;;;4.23;;
10511;SDS011;5304;48.604;2.096;2022-11-06T12:17:18;8.40;;;3.73;;
10511;SDS011;5304;48.604;2.096;2022-11-06T12:20:09;8.90;;;3.20;;
10511;SDS011;5304;48.604;2.096;2022-11-06T12:22:58;5.83;;;3.67;;
10511;SDS011;5304;48.604;2.096;2022-11-06T12:25:46;6.77;;;3.53;;
10511;SDS011;5304;48.604;2.096;2022-11-06T12:28:53;6.97;;;3.50;;
10511;SDS011;5304;48.604;2.096;2022-11-06T12:31:41;4.00;;;3.07;;
10511;SDS011;5304;48.604;2.096;2022-11-06T12:34:32;6.20;;;3.23;;
10511;SDS011;5304;48.604;2.096;2022-11-06T12:37:35;9.03;;;3.67;;
10511;SDS011;5304;48.604;2.096;2022-11-06T12:40:43;7.37;;;4.70;;
10511;SDS011;5304;48.604;2.096;2022-11-06T12:43:46;8.73;;;5.67;;
10511;SDS011;5304;48.604;2.096;2022-11-06T12:55:58;8.67;;;3.63;;
10511;SDS011;5304;48.604;2.096;2022-11-06T13:05:17;7.57;;;3.80;;
10511;SDS011;5304;48.604;2.096;2022-11-06T13:08:11;6.20;;;3.53;;
10511;SDS011;5304;48.604;2.096;2022-11-06T13:11:21;6.37;;;3.53;;
10511;SDS011;5304;48.604;2.096;2022-11-06T13:14:31;6.00;;;3.53;;
10511;SDS011;5304;48.604;2.096;2022-11-06T13:17:24;5.60;;;3.60;;
10511;SDS011;5304;48.604;2.096;2022-11-06T13:20:20;10.20;;;3.93;;
10511;SDS011;5304;48.604;2.096;2022-11-06T13:23:16;8.63;;;3.00;;
10511;SDS011;5304;48.604;2.096;2022-11-06T13:29:10;5.77;;;2.90;;
10511;SDS011;5304;48.604;2.096;2022-11-06T13:32:08;4.80;;;3.27;;
10511;SDS011;5304;48.604;2.096;2022-11-06T13:34:56;7.47;;;4.47;;
10511;SDS011;5304;48.604;2.096;2022-11-06T13:37:43;10.27;;;3.43;;
10511;SDS011;5304;48.604;2.096;2022-11-06T13:40:40;7.17;;;3.83;;
10511;SDS011;5304;48.604;2.096;2022-11-06T13:43:38;4.53;;;3.67;;
10511;SDS011;5304;48.604;2.096;2022-11-06T13:49:21;9.17;;;4.20;;
10511;SDS011;5304;48.604;2.096;2022-11-06T13:52:20;5.27;;;4.10;;
10511;SDS011;5304;48.604;2.096;2022-11-06T14:04:10;9.70;;;4.50;;
10511;SDS011;5304;48.604;2.096;2022-11-06T14:06:59;7.30;;;4.63;;
10511;SDS011;5304;48.604;2.096;2022-11-06T14:09:46;7.53;;;4.50;;
10511;SDS011;5304;48.604;2.096;2022-11-06T14:12:31;6.03;;;3.73;;
10511;SDS011;5304;48.604;2.096;2022-11-06T14:15:27;13.20;;;4.40;;
10511;SDS011;5304;48.604;2.096;2022-11-06T14:18:24;7.23;;;5.00;;
10511;SDS011;5304;48.604;2.096;2022-11-06T14:24:21;8.40;;;4.43;;
10511;SDS011;5304;48.604;2.096;2022-11-06T14:39:10;13.90;;;6.67;;
10511;SDS011;5304;48.604;2.096;2022-11-06T14:41:56;8.20;;;4.90;;
10511;SDS011;5304;48.604;2.096;2022-11-06T14:44:42;13.07;;;5.57;;
10511;SDS011;5304;48.604;2.096;2022-11-06T14:47:51;10.87;;;6.20;;
10511;SDS011;5304;48.604;2.096;2022-11-06T14:50:39;9.93;;;5.70;;
10511;SDS011;5304;48.604;2.096;2022-11-06T14:53:36;11.27;;;4.97;;
10511;SDS011;5304;48.604;2.096;2022-11-06T14:56:32;9.67;;;5.50;;
10511;SDS011;5304;48.604;2.096;2022-11-06T14:59:29;8.60;;;4.40;;
10511;SDS011;5304;48.604;2.096;2022-11-06T15:02:24;7.83;;;4.27;;
10511;SDS011;5304;48.604;2.096;2022-11-06T15:05:16;10.47;;;4.67;;
10511;SDS011;5304;48.604;2.096;2022-11-06T15:08:02;7.43;;;4.53;;
10511;SDS011;5304;48.604;2.096;2022-11-06T15:10:48;7.77;;;4.30;;
10511;SDS011;5304;48.604;2.096;2022-11-06T15:13:34;12.03;;;5.17;;
10511;SDS011;5304;48.604;2.096;2022-11-06T15:16:18;8.63;;;5.00;;
10511;SDS011;5304;48.604;2.096;2022-11-06T15:19:06;12.23;;;6.80;;
10511;SDS011;5304;48.604;2.096;2022-11-06T15:22:11;11.77;;;6.37;;
10511;SDS011;5304;48.604;2.096;2022-11-06T15:24:57;8.47;;;4.23;;
10511;SDS011;5304;48.604;2.096;2022-11-06T15:28:06;5.70;;;4.37;;
10511;SDS011;5304;48.604;2.096;2022-11-06T15:31:11;8.67;;;4.30;;
10511;SDS011;5304;48.604;2.096;2022-11-06T15:34:03;8.53;;;4.43;;
10511;SDS011;5304;48.604;2.096;2022-11-06T15:37:11;8.10;;;5.03;;
10511;SDS011;5304;48.604;2.096;2022-11-06T15:39:59;11.03;;;4.83;;
10511;SDS011;5304;48.604;2.096;2022-11-06T15:42:44;11.53;;;5.70;;
10511;SDS011;5304;48.604;2.096;2022-11-06T15:45:30;10.07;;;4.97;;
10511;SDS011;5304;48.604;2.096;2022-11-06T15:48:21;9.60;;;5.13;;
10511;SDS011;5304;48.604;2.096;2022-11-06T15:51:22;8.53;;;5.03;;
10511;SDS011;5304;48.604;2.096;2022-11-06T15:54:11;8.93;;;5.80;;
10511;SDS011;5304;48.604;2.096;2022-11-06T15:56:57;10.03;;;5.90;;
10511;SDS011;5304;48.604;2.096;2022-11-06T15:59:44;11.43;;;5.87;;
10511;SDS011;5304;48.604;2.096;2022-11-06T16:02:29;14.63;;;6.20;;
10511;SDS011;5304;48.604;2.096;2022-11-06T16:05:14;11.47;;;6.73;;
10511;SDS011;5304;48.604;2.096;2022-11-06T16:07:59;11.80;;;5.10;;
10511;SDS011;5304;48.604;2.096;2022-11-06T16:10:45;11.80;;;4.27;;
10511;SDS011;5304;48.604;2.096;2022-11-06T16:13:33;9.43;;;5.57;;
10511;SDS011;5304;48.604;2.096;2022-11-06T16:19:31;13.50;;;5.00;;
10511;SDS011;5304;48.604;2.096;2022-11-06T16:22:19;10.20;;;5.10;;
10511;SDS011;5304;48.604;2.096;2022-11-06T16:25:15;8.70;;;5.23;;
10511;SDS011;5304;48.604;2.096;2022-11-06T16:28:02;9.73;;;4.90;;
10511;SDS011;5304;48.604;2.096;2022-11-06T16:30:47;9.13;;;5.03;;
10511;SDS011;5304;48.604;2.096;2022-11-06T16:33:32;8.97;;;5.47;;
10511;SDS011;5304;48.604;2.096;2022-11-06T16:36:17;9.03;;;5.53;;
10511;SDS011;5304;48.604;2.096;2022-11-06T16:39:45;6.17;;;4.60;;
10511;SDS011;5304;48.604;2.096;2022-11-06T16:50:51;14.30;;;6.20;;
10511;SDS011;5304;48.604;2.096;2022-11-06T16:53:54;11.70;;;6.90;;
10511;SDS011;5304;48.604;2.096;2022-11-06T16:56:43;11.40;;;6.17;;
10511;SDS011;5304;48.604;2.096;2022-11-06T16:59:27;10.63;;;5.73;;
10511;SDS011;5304;48.604;2.096;2022-11-06T17:02:18;12.67;;;7.07;;
10511;SDS011;5304;48.604;2.096;2022-11-06T17:05:15;9.40;;;5.20;;
10511;SDS011;5304;48.604;2.096;2022-11-06T17:11:23;6.30;;;3.90;;
10511;SDS011;5304;48.604;2.096;2022-11-06T17:14:13;6.80;;;4.03;;
10511;SDS011;5304;48.604;2.096;2022-11-06T17:17:03;11.50;;;5.50;;
10511;SDS011;5304;48.604;2.096;2022-11-06T17:19:47;7.17;;;4.30;;
10511;SDS011;5304;48.604;2.096;2022-11-06T17:22:31;9.47;;;4.90;;
10511;SDS011;5304;48.604;2.096;2022-11-06T17:25:16;8.83;;;4.67;;
10511;SDS011;5304;48.604;2.096;2022-11-06T17:28:01;7.07;;;4.40;;
10511;SDS011;5304;48.604;2.096;2022-11-06T17:30:46;10.03;;;4.13;;
10511;SDS011;5304;48.604;2.096;2022-11-06T17:33:31;8.30;;;4.73;;
10511;SDS011;5304;48.604;2.096;2022-11-06T17:36:25;13.43;;;5.23;;
10511;SDS011;5304;48.604;2.096;2022-11-06T17:39:11;6.83;;;5.23;;
10511;SDS011;5304;48.604;2.096;2022-11-06T17:41:56;6.67;;;4.60;;
10511;SDS011;5304;48.604;2.096;2022-11-06T17:44:40;12.33;;;5.77;;
10511;SDS011;5304;48.604;2.096;2022-11-06T17:47:24;11.67;;;6.73;;
10511;SDS011;5304;48.604;2.096;2022-11-06T17:50:09;8.20;;;5.23;;
10511;SDS011;5304;48.604;2.096;2022-11-06T17:52:53;14.80;;;5.63;;
10511;SDS011;5304;48.604;2.096;2022-11-06T17:55:38;12.87;;;6.10;;
10511;SDS011;5304;48.604;2.096;2022-11-06T17:58:22;14.07;;;5.40;;
10511;SDS011;5304;48.604;2.096;2022-11-06T18:01:07;13.30;;;6.30;;
10511;SDS011;5304;48.604;2.096;2022-11-06T18:03:53;14.63;;;7.10;;
10511;SDS011;5304;48.604;2.096;2022-11-06T18:06:38;8.77;;;5.50;;
10511;SDS011;5304;48.604;2.096;2022-11-06T18:09:23;9.80;;;5.40;;
10511;SDS011;5304;48.604;2.096;2022-11-06T18:12:09;10.87;;;5.77;;
10511;SDS011;5304;48.604;2.096;2022-11-06T18:14:56;14.03;;;4.90;;
10511;SDS011;5304;48.604;2.096;2022-11-06T18:17:41;10.17;;;5.30;;
10511;SDS011;5304;48.604;2.096;2022-11-06T18:20:26;11.37;;;7.00;;
10511;SDS011;5304;48.604;2.096;2022-11-06T18:23:11;21.80;;;10.47;;
10511;SDS011;5304;48.604;2.096;2022-11-06T18:25:56;9.40;;;5.53;;
10511;SDS011;5304;48.604;2.096;2022-11-06T18:28:41;11.33;;;6.63;;
10511;SDS011;5304;48.604;2.096;2022-11-06T18:31:25;8.23;;;4.37;;
10511;SDS011;5304;48.604;2.096;2022-11-06T18:34:11;11.07;;;5.63;;
10511;SDS011;5304;48.604;2.096;2022-11-06T18:36:57;7.30;;;4.57;;
10511;SDS011;5304;48.604;2.096;2022-11-06T18:39:41;12.70;;;5.40;;
10511;SDS011;5304;48.604;2.096;2022-11-06T18:42:26;10.77;;;5.17;;
10511;SDS011;5304;48.604;2.096;2022-11-06T18:45:11;10.63;;;4.80;;
10511;SDS011;5304;48.604;2.096;2022-11-06T18:47:55;11.10;;;4.93;;
10511;SDS011;5304;48.604;2.096;2022-11-06T18:50:40;5.50;;;4.43;;
10511;SDS011;5304;48.604;2.096;2022-11-06T18:53:24;6.73;;;4.40;;
10511;SDS011;5304;48.604;2.096;2022-11-06T18:56:13;9.43;;;4.77;;
10511;SDS011;5304;48.604;2.096;2022-11-06T18:59:00;10.87;;;4.30;;
10511;SDS011;5304;48.604;2.096;2022-11-06T19:01:45;10.73;;;4.60;;
10511;SDS011;5304;48.604;2.096;2022-11-06T19:04:29;13.23;;;4.80;;
10511;SDS011;5304;48.604;2.096;2022-11-06T19:07:13;12.63;;;4.37;;
10511;SDS011;5304;48.604;2.096;2022-11-06T19:09:59;9.57;;;4.60;;
10511;SDS011;5304;48.604;2.096;2022-11-06T19:12:44;7.93;;;3.97;;